sensor_id;sensor_type;location;lat;lon;timestamp;P1;durP1;ratioP1;P2;durP2;ratioP2
17991;SDS011;9121;50.926;5.340;2023-03-20T00:00:30;8.80;;;5.30;;
17991;SDS011;9121;50.926;5.340;2023-03-20T00:03:00;11.83;;;5.10;;
17991;SDS011;9121;50.926;5.340;2023-03-20T00:05:27;8.23;;;4.77;;
17991;SDS011;9121;50.926;5.340;2023-03-20T00:07:56;8.40;;;4.77;;
17991;SDS011;9121;50.926;5.340;2023-03-20T00:10:24;9.53;;;5.40;;
17991;SDS011;9121;50.926;5.340;2023-03-20T00:13:00;9.53;;;5.07;;
17991;SDS011;9121;50.926;5.340;2023-03-20T00:15:29;11.73;;;6.07;;
17991;SDS011;9121;50.926;5.340;2023-03-20T00:17:58;9.03;;;5.10;;
17991;SDS011;9121;50.926;5.340;2023-03-20T00:20:25;7.87;;;4.77;;
17991;SDS011;9121;50.926;5.340;2023-03-20T00:22:52;12.23;;;5.13;;
17991;SDS011;9121;50.926;5.340;2023-03-20T00:25:20;6.30;;;4.23;;
17991;SDS011;9121;50.926;5.340;2023-03-20T00:27:50;9.07;;;5.03;;
17991;SDS011;9121;50.926;5.340;2023-03-20T00:30:22;10.87;;;5.17;;
17991;SDS011;9121;50.926;5.340;2023-03-20T00:32:52;8.03;;;4.43;;
17991;SDS011;9121;50.926;5.340;2023-03-20T00:35:24;11.67;;;6.13;;
17991;SDS011;9121;50.926;5.340;2023-03-20T00:37:53;12.63;;;7.20;;
17991;SDS011;9121;50.926;5.340;2023-03-20T00:40:21;14.63;;;7.67;;
17991;SDS011;9121;50.926;5.340;2023-03-20T00:42:54;18.93;;;8.53;;
17991;SDS011;9121;50.926;5.340;2023-03-20T00:45:25;22.70;;;8.43;;
17991;SDS011;9121;50.926;5.340;2023-03-20T00:47:53;14.70;;;7.77;;
17991;SDS011;9121;50.926;5.340;2023-03-20T00:50:22;33.33;;;10.20;;
17991;SDS011;9121;50.926;5.340;2023-03-20T00:52:50;31.90;;;10.37;;
17991;SDS011;9121;50.926;5.340;2023-03-20T00:55:19;84.03;;;13.23;;
17991;SDS011;9121;50.926;5.340;2023-03-20T00:57:48;26.93;;;11.30;;
17991;SDS011;9121;50.926;5.340;2023-03-20T01:00:26;23.27;;;10.97;;
17991;SDS011;9121;50.926;5.340;2023-03-20T01:03:01;24.07;;;12.17;;
17991;SDS011;9121;50.926;5.340;2023-03-20T01:05:36;21.50;;;11.20;;
17991;SDS011;9121;50.926;5.340;2023-03-20T01:08:04;25.10;;;11.63;;
17991;SDS011;9121;50.926;5.340;2023-03-20T01:10:35;28.20;;;11.97;;
17991;SDS011;9121;50.926;5.340;2023-03-20T01:13:02;30.93;;;12.47;;
17991;SDS011;9121;50.926;5.340;2023-03-20T01:15:31;31.50;;;13.63;;
17991;SDS011;9121;50.926;5.340;2023-03-20T01:17:59;26.10;;;12.43;;
17991;SDS011;9121;50.926;5.340;2023-03-20T01:20:26;26.37;;;12.47;;
17991;SDS011;9121;50.926;5.340;2023-03-20T01:22:55;24.90;;;12.70;;
17991;SDS011;9121;50.926;5.340;2023-03-20T01:25:22;25.37;;;12.27;;
17991;SDS011;9121;50.926;5.340;2023-03-20T01:27:49;25.17;;;12.37;;
17991;SDS011;9121;50.926;5.340;2023-03-20T01:30:21;29.47;;;12.67;;
17991;SDS011;9121;50.926;5.340;2023-03-20T01:32:51;25.67;;;11.80;;
17991;SDS011;9121;50.926;5.340;2023-03-20T01:35:20;27.70;;;11.83;;
17991;SDS011;9121;50.926;5.340;2023-03-20T01:37:48;36.83;;;11.83;;
17991;SDS011;9121;50.926;5.340;2023-03-20T01:40:23;22.03;;;10.67;;
17991;SDS011;9121;50.926;5.340;2023-03-20T01:42:57;19.57;;;9.70;;
17991;SDS011;9121;50.926;5.340;2023-03-20T01:45:25;20.77;;;10.60;;
17991;SDS011;9121;50.926;5.340;2023-03-20T01:47:58;21.13;;;10.40;;
17991;SDS011;9121;50.926;5.340;2023-03-20T01:50:27;19.57;;;9.97;;
17991;SDS011;9121;50.926;5.340;2023-03-20T01:53:07;22.70;;;10.00;;
17991;SDS011;9121;50.926;5.340;2023-03-20T01:55:37;20.60;;;9.97;;
17991;SDS011;9121;50.926;5.340;2023-03-20T01:58:07;17.30;;;8.90;;
17991;SDS011;9121;50.926;5.340;2023-03-20T02:00:38;19.90;;;9.13;;
17991;SDS011;9121;50.926;5.340;2023-03-20T02:03:06;17.53;;;9.03;;
17991;SDS011;9121;50.926;5.340;2023-03-20T02:05:34;20.40;;;9.03;;
17991;SDS011;9121;50.926;5.340;2023-03-20T02:08:12;18.70;;;8.97;;
17991;SDS011;9121;50.926;5.340;2023-03-20T02:10:44;16.80;;;8.80;;
17991;SDS011;9121;50.926;5.340;2023-03-20T02:13:12;15.77;;;8.43;;
17991;SDS011;9121;50.926;5.340;2023-03-20T02:15:52;20.50;;;8.53;;
17991;SDS011;9121;50.926;5.340;2023-03-20T02:18:23;16.77;;;8.20;;
17991;SDS011;9121;50.926;5.340;2023-03-20T02:20:57;16.57;;;8.87;;
17991;SDS011;9121;50.926;5.340;2023-03-20T02:26:48;16.70;;;7.77;;
17991;SDS011;9121;50.926;5.340;2023-03-20T02:38:48;14.50;;;7.70;;
17991;SDS011;9121;50.926;5.340;2023-03-20T02:41:36;18.97;;;8.17;;
17991;SDS011;9121;50.926;5.340;2023-03-20T02:44:10;17.20;;;8.07;;
17991;SDS011;9121;50.926;5.340;2023-03-20T02:46:45;18.23;;;8.60;;
17991;SDS011;9121;50.926;5.340;2023-03-20T02:49:22;14.60;;;8.00;;
17991;SDS011;9121;50.926;5.340;2023-03-20T02:52:04;18.30;;;8.67;;
17991;SDS011;9121;50.926;5.340;2023-03-20T02:54:39;16.80;;;8.23;;
17991;SDS011;9121;50.926;5.340;2023-03-20T02:57:12;17.17;;;8.07;;
17991;SDS011;9121;50.926;5.340;2023-03-20T02:59:46;18.67;;;7.87;;
17991;SDS011;9121;50.926;5.340;2023-03-20T03:02:20;20.07;;;8.90;;
17991;SDS011;9121;50.926;5.340;2023-03-20T03:04:53;18.27;;;8.10;;
17991;SDS011;9121;50.926;5.340;2023-03-20T03:07:23;18.03;;;8.07;;
17991;SDS011;9121;50.926;5.340;2023-03-20T03:09:55;14.20;;;7.53;;
17991;SDS011;9121;50.926;5.340;2023-03-20T03:12:28;18.00;;;8.17;;
17991;SDS011;9121;50.926;5.340;2023-03-20T03:14:58;17.37;;;7.63;;
17991;SDS011;9121;50.926;5.340;2023-03-20T03:17:28;20.33;;;8.23;;
17991;SDS011;9121;50.926;5.340;2023-03-20T03:20:00;16.43;;;7.47;;
17991;SDS011;9121;50.926;5.340;2023-03-20T03:22:30;19.93;;;8.17;;
17991;SDS011;9121;50.926;5.340;2023-03-20T03:25:00;16.57;;;8.53;;
17991;SDS011;9121;50.926;5.340;2023-03-20T03:27:28;16.07;;;8.17;;
17991;SDS011;9121;50.926;5.340;2023-03-20T03:30:00;13.87;;;7.83;;
17991;SDS011;9121;50.926;5.340;2023-03-20T03:32:31;18.40;;;8.30;;
17991;SDS011;9121;50.926;5.340;2023-03-20T03:35:00;17.93;;;8.07;;
17991;SDS011;9121;50.926;5.340;2023-03-20T03:37:33;16.53;;;8.73;;
17991;SDS011;9121;50.926;5.340;2023-03-20T03:40:09;19.20;;;7.90;;
17991;SDS011;9121;50.926;5.340;2023-03-20T03:42:54;20.03;;;8.37;;
17991;SDS011;9121;50.926;5.340;2023-03-20T03:45:24;19.50;;;7.80;;
17991;SDS011;9121;50.926;5.340;2023-03-20T03:47:57;20.03;;;8.63;;
17991;SDS011;9121;50.926;5.340;2023-03-20T03:50:31;15.77;;;8.00;;
17991;SDS011;9121;50.926;5.340;2023-03-20T03:53:02;14.77;;;8.57;;
17991;SDS011;9121;50.926;5.340;2023-03-20T03:55:35;20.60;;;8.80;;
17991;SDS011;9121;50.926;5.340;2023-03-20T03:58:05;15.40;;;8.20;;
17991;SDS011;9121;50.926;5.340;2023-03-20T04:00:36;17.40;;;8.37;;
17991;SDS011;9121;50.926;5.340;2023-03-20T04:03:06;15.93;;;8.63;;
17991;SDS011;9121;50.926;5.340;2023-03-20T04:05:35;23.03;;;8.80;;
17991;SDS011;9121;50.926;5.340;2023-03-20T04:08:06;19.17;;;8.63;;
17991;SDS011;9121;50.926;5.340;2023-03-20T04:10:33;24.23;;;10.20;;
17991;SDS011;9121;50.926;5.340;2023-03-20T04:13:01;22.63;;;9.63;;
17991;SDS011;9121;50.926;5.340;2023-03-20T04:15:28;18.23;;;9.10;;
17991;SDS011;9121;50.926;5.340;2023-03-20T04:17:55;19.60;;;9.10;;
17991;SDS011;9121;50.926;5.340;2023-03-20T04:20:22;22.57;;;10.03;;
17991;SDS011;9121;50.926;5.340;2023-03-20T04:22:49;18.80;;;9.33;;
17991;SDS011;9121;50.926;5.340;2023-03-20T04:25:16;17.83;;;9.60;;
17991;SDS011;9121;50.926;5.340;2023-03-20T04:27:46;22.90;;;10.37;;
17991;SDS011;9121;50.926;5.340;2023-03-20T04:30:13;21.00;;;9.70;;
17991;SDS011;9121;50.926;5.340;2023-03-20T04:32:40;21.07;;;10.27;;
17991;SDS011;9121;50.926;5.340;2023-03-20T04:35:07;22.87;;;10.60;;
17991;SDS011;9121;50.926;5.340;2023-03-20T04:37:34;20.60;;;10.10;;
17991;SDS011;9121;50.926;5.340;2023-03-20T04:40:01;22.27;;;10.20;;
17991;SDS011;9121;50.926;5.340;2023-03-20T04:42:29;24.53;;;10.93;;
17991;SDS011;9121;50.926;5.340;2023-03-20T04:44:57;23.40;;;11.67;;
17991;SDS011;9121;50.926;5.340;2023-03-20T04:47:24;26.60;;;11.83;;
17991;SDS011;9121;50.926;5.340;2023-03-20T04:49:51;23.43;;;12.00;;
17991;SDS011;9121;50.926;5.340;2023-03-20T04:52:18;25.83;;;11.60;;
17991;SDS011;9121;50.926;5.340;2023-03-20T04:54:45;32.43;;;13.67;;
17991;SDS011;9121;50.926;5.340;2023-03-20T04:57:12;29.17;;;12.80;;
17991;SDS011;9121;50.926;5.340;2023-03-20T04:59:39;28.23;;;13.47;;
17991;SDS011;9121;50.926;5.340;2023-03-20T05:02:07;28.70;;;12.60;;
17991;SDS011;9121;50.926;5.340;2023-03-20T05:04:38;31.03;;;12.87;;
17991;SDS011;9121;50.926;5.340;2023-03-20T05:07:06;29.43;;;13.30;;
17991;SDS011;9121;50.926;5.340;2023-03-20T05:09:33;29.50;;;13.10;;
17991;SDS011;9121;50.926;5.340;2023-03-20T05:12:00;36.77;;;14.47;;
17991;SDS011;9121;50.926;5.340;2023-03-20T05:14:26;33.53;;;14.13;;
17991;SDS011;9121;50.926;5.340;2023-03-20T05:16:53;28.00;;;13.80;;
17991;SDS011;9121;50.926;5.340;2023-03-20T05:19:22;33.67;;;14.80;;
17991;SDS011;9121;50.926;5.340;2023-03-20T05:21:49;38.97;;;14.53;;
17991;SDS011;9121;50.926;5.340;2023-03-20T05:24:16;31.23;;;13.77;;
17991;SDS011;9121;50.926;5.340;2023-03-20T05:26:43;28.47;;;13.80;;
17991;SDS011;9121;50.926;5.340;2023-03-20T05:29:10;35.30;;;15.03;;
17991;SDS011;9121;50.926;5.340;2023-03-20T05:31:37;37.77;;;14.30;;
17991;SDS011;9121;50.926;5.340;2023-03-20T05:34:05;36.23;;;14.07;;
17991;SDS011;9121;50.926;5.340;2023-03-20T05:36:33;39.53;;;14.40;;
17991;SDS011;9121;50.926;5.340;2023-03-20T05:39:01;36.83;;;14.77;;
17991;SDS011;9121;50.926;5.340;2023-03-20T05:41:29;31.73;;;13.60;;
17991;SDS011;9121;50.926;5.340;2023-03-20T05:43:56;55.77;;;16.13;;
17991;SDS011;9121;50.926;5.340;2023-03-20T05:46:22;36.53;;;14.23;;
17991;SDS011;9121;50.926;5.340;2023-03-20T05:48:50;37.27;;;14.57;;
17991;SDS011;9121;50.926;5.340;2023-03-20T05:51:17;31.03;;;14.43;;
17991;SDS011;9121;50.926;5.340;2023-03-20T05:53:45;33.73;;;13.63;;
17991;SDS011;9121;50.926;5.340;2023-03-20T05:56:12;36.20;;;16.20;;
17991;SDS011;9121;50.926;5.340;2023-03-20T05:58:39;43.27;;;14.60;;
17991;SDS011;9121;50.926;5.340;2023-03-20T06:01:07;38.07;;;13.90;;
17991;SDS011;9121;50.926;5.340;2023-03-20T06:03:33;36.80;;;13.73;;
17991;SDS011;9121;50.926;5.340;2023-03-20T06:06:01;31.37;;;12.63;;
17991;SDS011;9121;50.926;5.340;2023-03-20T06:08:28;36.87;;;13.67;;
17991;SDS011;9121;50.926;5.340;2023-03-20T06:10:56;29.37;;;13.07;;
17991;SDS011;9121;50.926;5.340;2023-03-20T06:13:23;35.57;;;12.70;;
17991;SDS011;9121;50.926;5.340;2023-03-20T06:15:50;42.47;;;13.87;;
17991;SDS011;9121;50.926;5.340;2023-03-20T06:18:17;35.80;;;12.33;;
17991;SDS011;9121;50.926;5.340;2023-03-20T06:20:44;35.33;;;13.10;;
17991;SDS011;9121;50.926;5.340;2023-03-20T06:23:11;43.03;;;12.87;;
17991;SDS011;9121;50.926;5.340;2023-03-20T06:25:38;38.87;;;13.43;;
17991;SDS011;9121;50.926;5.340;2023-03-20T06:28:06;34.83;;;12.87;;
17991;SDS011;9121;50.926;5.340;2023-03-20T06:30:33;36.10;;;12.67;;
17991;SDS011;9121;50.926;5.340;2023-03-20T06:33:00;33.23;;;11.57;;
17991;SDS011;9121;50.926;5.340;2023-03-20T06:35:27;33.60;;;12.03;;
17991;SDS011;9121;50.926;5.340;2023-03-20T06:37:55;41.10;;;13.03;;
17991;SDS011;9121;50.926;5.340;2023-03-20T06:40:23;47.07;;;12.90;;
17991;SDS011;9121;50.926;5.340;2023-03-20T06:42:51;33.30;;;11.90;;
17991;SDS011;9121;50.926;5.340;2023-03-20T06:45:19;32.10;;;12.13;;
17991;SDS011;9121;50.926;5.340;2023-03-20T06:47:47;30.67;;;12.47;;
17991;SDS011;9121;50.926;5.340;2023-03-20T06:50:14;28.67;;;11.73;;
17991;SDS011;9121;50.926;5.340;2023-03-20T06:52:43;33.83;;;12.17;;
17991;SDS011;9121;50.926;5.340;2023-03-20T06:55:10;30.50;;;11.63;;
17991;SDS011;9121;50.926;5.340;2023-03-20T06:57:37;34.33;;;11.70;;
17991;SDS011;9121;50.926;5.340;2023-03-20T07:00:04;31.97;;;11.87;;
17991;SDS011;9121;50.926;5.340;2023-03-20T07:02:35;26.80;;;10.97;;
17991;SDS011;9121;50.926;5.340;2023-03-20T07:05:03;28.90;;;10.60;;
17991;SDS011;9121;50.926;5.340;2023-03-20T07:07:30;29.60;;;10.73;;
17991;SDS011;9121;50.926;5.340;2023-03-20T07:09:57;78.50;;;12.23;;
17991;SDS011;9121;50.926;5.340;2023-03-20T07:12:24;31.53;;;9.80;;
17991;SDS011;9121;50.926;5.340;2023-03-20T07:14:52;67.47;;;10.37;;
17991;SDS011;9121;50.926;5.340;2023-03-20T07:17:20;44.10;;;9.70;;
17991;SDS011;9121;50.926;5.340;2023-03-20T07:19:48;28.20;;;10.13;;
17991;SDS011;9121;50.926;5.340;2023-03-20T07:22:17;31.03;;;9.83;;
17991;SDS011;9121;50.926;5.340;2023-03-20T07:24:46;24.27;;;8.77;;
17991;SDS011;9121;50.926;5.340;2023-03-20T07:27:13;52.70;;;10.67;;
17991;SDS011;9121;50.926;5.340;2023-03-20T07:29:40;21.73;;;8.47;;
17991;SDS011;9121;50.926;5.340;2023-03-20T07:32:07;19.47;;;7.23;;
17991;SDS011;9121;50.926;5.340;2023-03-20T07:34:34;28.63;;;7.90;;
17991;SDS011;9121;50.926;5.340;2023-03-20T07:37:03;18.43;;;6.97;;
17991;SDS011;9121;50.926;5.340;2023-03-20T07:39:30;25.43;;;7.87;;
17991;SDS011;9121;50.926;5.340;2023-03-20T07:41:57;20.50;;;5.93;;
17991;SDS011;9121;50.926;5.340;2023-03-20T07:44:24;19.57;;;6.47;;
17991;SDS011;9121;50.926;5.340;2023-03-20T07:46:51;17.43;;;5.63;;
17991;SDS011;9121;50.926;5.340;2023-03-20T07:49:18;23.63;;;7.10;;
17991;SDS011;9121;50.926;5.340;2023-03-20T07:51:46;24.57;;;5.60;;
17991;SDS011;9121;50.926;5.340;2023-03-20T07:54:15;18.43;;;5.57;;
17991;SDS011;9121;50.926;5.340;2023-03-20T07:56:42;13.33;;;4.63;;
17991;SDS011;9121;50.926;5.340;2023-03-20T07:59:09;12.70;;;4.87;;
17991;SDS011;9121;50.926;5.340;2023-03-20T08:01:37;13.77;;;4.97;;
17991;SDS011;9121;50.926;5.340;2023-03-20T08:04:05;24.47;;;5.57;;
17991;SDS011;9121;50.926;5.340;2023-03-20T08:06:32;29.50;;;5.30;;
17991;SDS011;9121;50.926;5.340;2023-03-20T08:09:00;16.13;;;5.03;;
17991;SDS011;9121;50.926;5.340;2023-03-20T08:11:28;15.13;;;4.60;;
17991;SDS011;9121;50.926;5.340;2023-03-20T08:13:55;13.13;;;4.90;;
17991;SDS011;9121;50.926;5.340;2023-03-20T08:16:22;19.23;;;4.97;;
17991;SDS011;9121;50.926;5.340;2023-03-20T08:18:50;13.70;;;5.10;;
17991;SDS011;9121;50.926;5.340;2023-03-20T08:21:17;11.70;;;4.63;;
17991;SDS011;9121;50.926;5.340;2023-03-20T08:23:44;16.73;;;4.37;;
17991;SDS011;9121;50.926;5.340;2023-03-20T08:26:11;13.53;;;4.37;;
17991;SDS011;9121;50.926;5.340;2023-03-20T08:28:39;14.27;;;4.00;;
17991;SDS011;9121;50.926;5.340;2023-03-20T08:31:07;39.93;;;6.73;;
17991;SDS011;9121;50.926;5.340;2023-03-20T08:33:34;19.37;;;5.13;;
17991;SDS011;9121;50.926;5.340;2023-03-20T08:36:01;16.97;;;5.10;;
17991;SDS011;9121;50.926;5.340;2023-03-20T08:38:28;13.10;;;4.63;;
17991;SDS011;9121;50.926;5.340;2023-03-20T08:40:55;23.47;;;5.63;;
17991;SDS011;9121;50.926;5.340;2023-03-20T08:43:22;38.30;;;7.00;;
17991;SDS011;9121;50.926;5.340;2023-03-20T08:45:51;17.43;;;4.27;;
17991;SDS011;9121;50.926;5.340;2023-03-20T08:48:18;15.40;;;5.23;;
17991;SDS011;9121;50.926;5.340;2023-03-20T08:50:45;24.93;;;5.43;;
17991;SDS011;9121;50.926;5.340;2023-03-20T08:53:12;19.40;;;4.33;;
17991;SDS011;9121;50.926;5.340;2023-03-20T08:55:39;35.80;;;5.13;;
17991;SDS011;9121;50.926;5.340;2023-03-20T08:58:05;14.87;;;4.67;;
17991;SDS011;9121;50.926;5.340;2023-03-20T09:00:32;21.73;;;4.93;;
17991;SDS011;9121;50.926;5.340;2023-03-20T09:03:01;23.87;;;4.40;;
17991;SDS011;9121;50.926;5.340;2023-03-20T09:05:28;17.30;;;4.20;;
17991;SDS011;9121;50.926;5.340;2023-03-20T09:07:55;17.53;;;4.47;;
17991;SDS011;9121;50.926;5.340;2023-03-20T09:10:22;18.80;;;4.10;;
17991;SDS011;9121;50.926;5.340;2023-03-20T09:12:49;15.50;;;3.83;;
17991;SDS011;9121;50.926;5.340;2023-03-20T09:15:16;19.10;;;4.53;;
17991;SDS011;9121;50.926;5.340;2023-03-20T09:17:43;11.40;;;3.60;;
17991;SDS011;9121;50.926;5.340;2023-03-20T09:20:11;16.57;;;4.13;;
17991;SDS011;9121;50.926;5.340;2023-03-20T09:22:38;16.60;;;4.50;;
17991;SDS011;9121;50.926;5.340;2023-03-20T09:25:08;15.03;;;4.07;;
17991;SDS011;9121;50.926;5.340;2023-03-20T09:27:35;16.93;;;4.10;;
17991;SDS011;9121;50.926;5.340;2023-03-20T09:30:02;15.93;;;4.03;;
17991;SDS011;9121;50.926;5.340;2023-03-20T09:32:30;18.50;;;4.50;;
17991;SDS011;9121;50.926;5.340;2023-03-20T09:34:57;23.53;;;4.73;;
17991;SDS011;9121;50.926;5.340;2023-03-20T09:37:25;15.53;;;4.30;;
17991;SDS011;9121;50.926;5.340;2023-03-20T09:39:52;19.27;;;4.63;;
17991;SDS011;9121;50.926;5.340;2023-03-20T09:42:23;20.43;;;4.40;;
17991;SDS011;9121;50.926;5.340;2023-03-20T09:45:00;20.33;;;4.13;;
17991;SDS011;9121;50.926;5.340;2023-03-20T09:47:33;22.23;;;4.23;;
17991;SDS011;9121;50.926;5.340;2023-03-20T09:50:12;13.13;;;3.97;;
17991;SDS011;9121;50.926;5.340;2023-03-20T09:52:51;15.43;;;5.20;;
17991;SDS011;9121;50.926;5.340;2023-03-20T09:55:22;13.03;;;4.20;;
17991;SDS011;9121;50.926;5.340;2023-03-20T09:57:57;14.33;;;4.40;;
17991;SDS011;9121;50.926;5.340;2023-03-20T10:00:30;20.00;;;4.20;;
17991;SDS011;9121;50.926;5.340;2023-03-20T10:03:00;14.13;;;5.20;;
17991;SDS011;9121;50.926;5.340;2023-03-20T10:05:29;13.87;;;4.93;;
17991;SDS011;9121;50.926;5.340;2023-03-20T10:08:04;19.63;;;4.73;;
17991;SDS011;9121;50.926;5.340;2023-03-20T10:10:35;13.83;;;4.20;;
17991;SDS011;9121;50.926;5.340;2023-03-20T10:13:27;18.60;;;4.37;;
17991;SDS011;9121;50.926;5.340;2023-03-20T10:16:22;10.57;;;4.50;;
17991;SDS011;9121;50.926;5.340;2023-03-20T10:18:59;13.67;;;4.27;;
17991;SDS011;9121;50.926;5.340;2023-03-20T10:21:33;13.10;;;4.23;;
17991;SDS011;9121;50.926;5.340;2023-03-20T10:24:08;19.00;;;5.20;;
17991;SDS011;9121;50.926;5.340;2023-03-20T10:26:43;12.40;;;4.43;;
17991;SDS011;9121;50.926;5.340;2023-03-20T10:29:17;10.37;;;3.90;;
17991;SDS011;9121;50.926;5.340;2023-03-20T10:31:53;15.20;;;5.23;;
17991;SDS011;9121;50.926;5.340;2023-03-20T10:34:42;14.03;;;4.30;;
17991;SDS011;9121;50.926;5.340;2023-03-20T10:37:19;10.20;;;3.60;;
17991;SDS011;9121;50.926;5.340;2023-03-20T10:40:01;12.30;;;4.60;;
17991;SDS011;9121;50.926;5.340;2023-03-20T10:42:46;10.20;;;3.87;;
17991;SDS011;9121;50.926;5.340;2023-03-20T10:45:17;13.30;;;4.30;;
17991;SDS011;9121;50.926;5.340;2023-03-20T10:47:54;16.03;;;4.70;;
17991;SDS011;9121;50.926;5.340;2023-03-20T10:50:22;21.60;;;4.67;;
17991;SDS011;9121;50.926;5.340;2023-03-20T10:52:54;15.37;;;4.73;;
17991;SDS011;9121;50.926;5.340;2023-03-20T10:55:24;21.60;;;4.33;;
17991;SDS011;9121;50.926;5.340;2023-03-20T10:57:55;14.20;;;4.27;;
17991;SDS011;9121;50.926;5.340;2023-03-20T11:00:27;11.43;;;3.80;;
17991;SDS011;9121;50.926;5.340;2023-03-20T11:02:54;18.20;;;4.10;;
17991;SDS011;9121;50.926;5.340;2023-03-20T11:05:22;17.13;;;4.20;;
17991;SDS011;9121;50.926;5.340;2023-03-20T11:07:59;16.27;;;3.67;;
17991;SDS011;9121;50.926;5.340;2023-03-20T11:10:31;14.83;;;3.90;;
17991;SDS011;9121;50.926;5.340;2023-03-20T11:13:03;21.93;;;4.40;;
17991;SDS011;9121;50.926;5.340;2023-03-20T11:15:41;15.87;;;4.03;;
17991;SDS011;9121;50.926;5.340;2023-03-20T11:18:09;16.33;;;4.20;;
17991;SDS011;9121;50.926;5.340;2023-03-20T11:20:39;11.90;;;4.60;;
17991;SDS011;9121;50.926;5.340;2023-03-20T11:23:13;15.43;;;3.90;;
17991;SDS011;9121;50.926;5.340;2023-03-20T11:25:48;12.40;;;3.97;;
17991;SDS011;9121;50.926;5.340;2023-03-20T11:28:24;17.43;;;4.60;;
17991;SDS011;9121;50.926;5.340;2023-03-20T11:30:56;16.30;;;4.10;;
17991;SDS011;9121;50.926;5.340;2023-03-20T11:33:26;14.50;;;4.50;;
17991;SDS011;9121;50.926;5.340;2023-03-20T11:35:55;11.97;;;3.60;;
17991;SDS011;9121;50.926;5.340;2023-03-20T11:38:23;13.47;;;4.23;;
17991;SDS011;9121;50.926;5.340;2023-03-20T11:40:52;15.87;;;4.10;;
17991;SDS011;9121;50.926;5.340;2023-03-20T11:43:21;17.03;;;3.67;;
17991;SDS011;9121;50.926;5.340;2023-03-20T11:45:52;12.80;;;3.75;;
17991;SDS011;9121;50.926;5.340;2023-03-20T11:48:22;15.97;;;3.97;;
17991;SDS011;9121;50.926;5.340;2023-03-20T11:50:51;18.70;;;3.97;;
17991;SDS011;9121;50.926;5.340;2023-03-20T11:53:27;16.43;;;3.70;;
17991;SDS011;9121;50.926;5.340;2023-03-20T11:56:05;19.13;;;4.13;;
17991;SDS011;9121;50.926;5.340;2023-03-20T11:58:36;17.27;;;3.43;;
17991;SDS011;9121;50.926;5.340;2023-03-20T12:01:11;11.77;;;3.43;;
17991;SDS011;9121;50.926;5.340;2023-03-20T12:03:43;16.33;;;3.20;;
17991;SDS011;9121;50.926;5.340;2023-03-20T12:06:20;14.93;;;3.87;;
17991;SDS011;9121;50.926;5.340;2023-03-20T12:08:49;12.30;;;3.37;;
17991;SDS011;9121;50.926;5.340;2023-03-20T12:11:35;12.45;;;3.50;;
17991;SDS011;9121;50.926;5.340;2023-03-20T12:14:11;13.60;;;3.53;;
17991;SDS011;9121;50.926;5.340;2023-03-20T12:16:46;15.20;;;3.57;;
17991;SDS011;9121;50.926;5.340;2023-03-20T12:19:19;13.53;;;3.03;;
17991;SDS011;9121;50.926;5.340;2023-03-20T12:21:51;15.13;;;3.00;;
17991;SDS011;9121;50.926;5.340;2023-03-20T12:24:26;13.90;;;3.57;;
17991;SDS011;9121;50.926;5.340;2023-03-20T12:27:06;13.47;;;3.30;;
17991;SDS011;9121;50.926;5.340;2023-03-20T12:29:44;10.30;;;2.93;;
17991;SDS011;9121;50.926;5.340;2023-03-20T12:32:14;15.87;;;3.67;;
17991;SDS011;9121;50.926;5.340;2023-03-20T12:34:45;14.43;;;3.53;;
17991;SDS011;9121;50.926;5.340;2023-03-20T12:37:16;8.85;;;2.78;;
17991;SDS011;9121;50.926;5.340;2023-03-20T12:39:45;12.68;;;3.58;;
17991;SDS011;9121;50.926;5.340;2023-03-20T12:42:20;13.50;;;3.90;;
17991;SDS011;9121;50.926;5.340;2023-03-20T12:45:00;11.87;;;3.00;;
17991;SDS011;9121;50.926;5.340;2023-03-20T12:47:56;13.10;;;3.27;;
17991;SDS011;9121;50.926;5.340;2023-03-20T12:50:30;13.63;;;2.90;;
17991;SDS011;9121;50.926;5.340;2023-03-20T12:53:03;12.63;;;3.20;;
17991;SDS011;9121;50.926;5.340;2023-03-20T12:55:49;12.30;;;2.80;;
17991;SDS011;9121;50.926;5.340;2023-03-20T12:58:27;18.42;;;4.05;;
17991;SDS011;9121;50.926;5.340;2023-03-20T13:01:05;10.77;;;3.22;;
17991;SDS011;9121;50.926;5.340;2023-03-20T13:03:47;13.75;;;3.58;;
17991;SDS011;9121;50.926;5.340;2023-03-20T13:06:29;10.10;;;3.10;;
17991;SDS011;9121;50.926;5.340;2023-03-20T13:09:21;9.50;;;2.77;;
17991;SDS011;9121;50.926;5.340;2023-03-20T13:12:04;18.33;;;3.53;;
17991;SDS011;9121;50.926;5.340;2023-03-20T13:14:43;20.58;;;3.85;;
17991;SDS011;9121;50.926;5.340;2023-03-20T13:17:15;17.50;;;3.85;;
17991;SDS011;9121;50.926;5.340;2023-03-20T13:19:49;12.23;;;3.95;;
17991;SDS011;9121;50.926;5.340;2023-03-20T13:22:27;13.32;;;3.90;;
17991;SDS011;9121;50.926;5.340;2023-03-20T13:25:02;11.50;;;3.20;;
17991;SDS011;9121;50.926;5.340;2023-03-20T13:27:51;10.40;;;3.20;;
17991;SDS011;9121;50.926;5.340;2023-03-20T13:30:26;14.00;;;2.88;;
17991;SDS011;9121;50.926;5.340;2023-03-20T13:33:02;14.70;;;3.15;;
17991;SDS011;9121;50.926;5.340;2023-03-20T13:35:38;15.60;;;3.72;;
17991;SDS011;9121;50.926;5.340;2023-03-20T13:38:14;14.32;;;3.50;;
17991;SDS011;9121;50.926;5.340;2023-03-20T13:40:44;21.80;;;4.30;;
17991;SDS011;9121;50.926;5.340;2023-03-20T13:43:19;11.23;;;3.45;;
17991;SDS011;9121;50.926;5.340;2023-03-20T13:45:55;14.80;;;3.42;;
17991;SDS011;9121;50.926;5.340;2023-03-20T13:48:29;19.48;;;3.67;;
17991;SDS011;9121;50.926;5.340;2023-03-20T13:51:03;14.53;;;3.87;;
17991;SDS011;9121;50.926;5.340;2023-03-20T13:53:43;14.47;;;4.03;;
17991;SDS011;9121;50.926;5.340;2023-03-20T13:56:19;30.83;;;4.27;;
17991;SDS011;9121;50.926;5.340;2023-03-20T13:58:59;16.03;;;3.80;;
17991;SDS011;9121;50.926;5.340;2023-03-20T14:01:39;15.95;;;3.58;;
17991;SDS011;9121;50.926;5.340;2023-03-20T14:04:15;15.50;;;3.80;;
17991;SDS011;9121;50.926;5.340;2023-03-20T14:06:49;13.73;;;4.07;;
17991;SDS011;9121;50.926;5.340;2023-03-20T14:09:25;12.87;;;3.90;;
17991;SDS011;9121;50.926;5.340;2023-03-20T14:11:54;19.07;;;4.87;;
17991;SDS011;9121;50.926;5.340;2023-03-20T14:14:25;34.78;;;4.20;;
17991;SDS011;9121;50.926;5.340;2023-03-20T14:17:03;15.33;;;4.07;;
17991;SDS011;9121;50.926;5.340;2023-03-20T14:19:34;14.80;;;4.13;;
17991;SDS011;9121;50.926;5.340;2023-03-20T14:22:03;20.65;;;4.30;;
17991;SDS011;9121;50.926;5.340;2023-03-20T14:24:33;13.98;;;3.67;;
17991;SDS011;9121;50.926;5.340;2023-03-20T14:27:04;17.20;;;3.63;;
17991;SDS011;9121;50.926;5.340;2023-03-20T14:29:33;24.98;;;3.88;;
17991;SDS011;9121;50.926;5.340;2023-03-20T14:32:04;15.52;;;3.97;;
17991;SDS011;9121;50.926;5.340;2023-03-20T14:34:58;10.00;;;3.47;;
17991;SDS011;9121;50.926;5.340;2023-03-20T14:37:44;16.65;;;3.78;;
17991;SDS011;9121;50.926;5.340;2023-03-20T14:40:46;139.13;;;9.57;;
17991;SDS011;9121;50.926;5.340;2023-03-20T14:43:22;18.58;;;3.90;;
17991;SDS011;9121;50.926;5.340;2023-03-20T14:46:01;14.97;;;3.90;;
17991;SDS011;9121;50.926;5.340;2023-03-20T14:48:34;19.38;;;4.05;;
17991;SDS011;9121;50.926;5.340;2023-03-20T14:51:11;16.88;;;3.90;;
17991;SDS011;9121;50.926;5.340;2023-03-20T14:53:49;21.80;;;4.65;;
17991;SDS011;9121;50.926;5.340;2023-03-20T14:56:24;14.30;;;3.88;;
17991;SDS011;9121;50.926;5.340;2023-03-20T14:58:55;16.52;;;4.38;;
17991;SDS011;9121;50.926;5.340;2023-03-20T15:01:27;21.10;;;4.53;;
17991;SDS011;9121;50.926;5.340;2023-03-20T15:04:12;15.73;;;4.18;;
17991;SDS011;9121;50.926;5.340;2023-03-20T15:06:49;11.02;;;3.80;;
17991;SDS011;9121;50.926;5.340;2023-03-20T15:09:21;15.15;;;4.40;;
17991;SDS011;9121;50.926;5.340;2023-03-20T15:11:51;15.25;;;4.05;;
17991;SDS011;9121;50.926;5.340;2023-03-20T15:14:20;37.15;;;4.60;;
17991;SDS011;9121;50.926;5.340;2023-03-20T15:16:55;11.35;;;4.13;;
17991;SDS011;9121;50.926;5.340;2023-03-20T15:19:24;12.63;;;4.40;;
17991;SDS011;9121;50.926;5.340;2023-03-20T15:21:52;17.27;;;4.55;;